createdAt,value
2023-03-29T00:01:07.552Z,1.88
2023-03-29T00:04:10.341Z,1.63
2023-03-29T00:07:14.274Z,1.60
2023-03-29T00:10:16.336Z,1.38
2023-03-29T00:13:18.689Z,1.40
2023-03-29T00:16:20.889Z,1.50
2023-03-29T00:19:23.200Z,1.65
2023-03-29T00:22:25.895Z,1.60
2023-03-29T00:25:27.998Z,2.17
2023-03-29T00:28:30.245Z,2.83
2023-03-29T00:31:32.455Z,2.08
2023-03-29T00:34:36.272Z,1.88
2023-03-29T00:37:39.759Z,2.10
2023-03-29T00:40:44.410Z,1.77
2023-03-29T00:44:04.696Z,1.52
2023-03-29T00:47:07.321Z,1.98
2023-03-29T00:50:16.988Z,1.90
2023-03-29T00:53:32.150Z,2.60
2023-03-29T00:56:38.758Z,1.60
2023-03-29T00:59:45.220Z,1.30
2023-03-29T01:02:51.203Z,2.28
2023-03-29T01:06:07.715Z,1.60
2023-03-29T01:09:14.729Z,1.45
2023-03-29T01:12:23.176Z,2.75
2023-03-29T01:15:28.312Z,2.67
2023-03-29T01:18:33.778Z,2.33
2023-03-29T01:21:43.814Z,1.70
2023-03-29T01:25:01.461Z,2.00
2023-03-29T01:28:10.104Z,3.03
2023-03-29T01:31:30.227Z,2.58
2023-03-29T01:34:43.859Z,2.22
2023-03-29T01:37:53.026Z,3.60
2023-03-29T01:40:55.148Z,1.60
2023-03-29T01:44:03.502Z,1.60
2023-03-29T01:47:34.278Z,1.95
2023-03-29T01:50:39.475Z,1.67
2023-03-29T01:53:50.310Z,1.80
2023-03-29T01:56:53.312Z,2.10
2023-03-29T01:59:57.918Z,2.63
2023-03-29T02:03:05.976Z,1.92
2023-03-29T02:06:15.625Z,1.80
2023-03-29T02:09:17.933Z,2.00
2023-03-29T02:12:20.884Z,1.50
2023-03-29T02:15:23.689Z,2.33
2023-03-29T02:18:26.372Z,2.30
2023-03-29T02:21:36.405Z,1.75
2023-03-29T02:24:41.033Z,1.77
2023-03-29T02:27:43.502Z,2.60
2023-03-29T02:30:57.236Z,2.40
2023-03-29T02:34:16.096Z,2.33
2023-03-29T02:37:20.259Z,1.85
2023-03-29T02:40:24.621Z,2.75
2023-03-29T02:43:32.588Z,2.10
2023-03-29T02:46:35.175Z,3.05
2023-03-29T02:49:37.262Z,2.40
2023-03-29T02:52:44.959Z,2.40
2023-03-29T02:55:48.784Z,2.90
2023-03-29T02:58:51.038Z,3.53
2023-03-29T03:01:53.735Z,2.88
2023-03-29T03:04:56.015Z,3.13
2023-03-29T03:07:58.610Z,2.92
2023-03-29T03:11:00.921Z,3.17
2023-03-29T03:14:03.164Z,3.25
2023-03-29T03:17:05.203Z,3.78
2023-03-29T03:20:13.320Z,4.78
2023-03-29T03:23:15.395Z,5.05
2023-03-29T03:26:18.292Z,4.45
2023-03-29T03:29:20.439Z,4.10
2023-03-29T03:32:22.948Z,5.25
2023-03-29T03:35:25.302Z,4.38
2023-03-29T03:38:29.508Z,4.57
2023-03-29T03:41:32.695Z,4.32
2023-03-29T03:44:34.721Z,4.60
2023-03-29T03:47:37.835Z,4.45
2023-03-29T03:50:40.850Z,4.20
2023-03-29T03:53:42.955Z,3.30
2023-03-29T03:56:47.518Z,3.95
2023-03-29T04:02:54.424Z,4.30
2023-03-29T04:05:56.705Z,4.88
2023-03-29T04:08:59.847Z,4.95
2023-03-29T04:12:01.936Z,3.90
2023-03-29T04:15:04.643Z,4.22
2023-03-29T04:18:08.325Z,4.43
2023-03-29T04:21:12.202Z,4.20
2023-03-29T04:24:14.399Z,4.63
2023-03-29T04:27:16.641Z,3.50
2023-03-29T04:30:18.797Z,3.63
2023-03-29T04:33:21.376Z,3.45
2023-03-29T04:36:23.607Z,4.72
2023-03-29T04:39:33.137Z,5.43
2023-03-29T04:42:36.209Z,5.13
2023-03-29T04:45:38.552Z,4.65
2023-03-29T04:48:40.629Z,4.53
2023-03-29T04:51:44.197Z,4.70
2023-03-29T04:54:46.378Z,3.97
2023-03-29T04:57:48.427Z,4.57
2023-03-29T05:00:51.672Z,6.43
2023-03-29T05:03:55.156Z,5.28
2023-03-29T05:06:57.912Z,6.65
2023-03-29T05:10:00.024Z,5.70
2023-03-29T05:13:06.202Z,5.43
2023-03-29T05:16:08.946Z,6.00
2023-03-29T05:19:11.557Z,7.55
2023-03-29T05:22:14.281Z,6.10
2023-03-29T05:25:17.659Z,5.95
2023-03-29T05:28:19.944Z,6.93
2023-03-29T05:31:22.982Z,6.55
2023-03-29T05:34:25.743Z,5.68
2023-03-29T05:37:28.647Z,5.97
2023-03-29T05:40:32.171Z,6.35
2023-03-29T05:43:35.050Z,6.00
2023-03-29T05:46:37.036Z,7.82
2023-03-29T05:49:39.355Z,8.90
2023-03-29T05:52:41.435Z,7.00
2023-03-29T05:55:44.335Z,7.82
2023-03-29T05:58:46.853Z,5.07
2023-03-29T06:01:48.890Z,6.10
2023-03-29T06:04:51.983Z,6.22
2023-03-29T06:07:54.040Z,5.55
2023-03-29T06:11:05.378Z,5.15
2023-03-29T06:14:08.658Z,6.75
2023-03-29T06:17:10.914Z,5.38
2023-03-29T06:20:13.801Z,6.10
2023-03-29T06:23:15.854Z,7.50
2023-03-29T06:26:20.145Z,7.47
2023-03-29T06:29:22.323Z,7.65
2023-03-29T06:32:24.470Z,6.50
2023-03-29T06:35:27.174Z,6.72
2023-03-29T06:38:29.304Z,9.02
2023-03-29T06:41:32.675Z,7.32
2023-03-29T06:44:34.796Z,8.52
2023-03-29T06:47:36.900Z,8.10
2023-03-29T06:50:39.001Z,8.70
2023-03-29T06:53:41.581Z,8.98
2023-03-29T06:56:43.886Z,10.40
2023-03-29T06:59:46.683Z,12.55
2023-03-29T07:02:49.663Z,11.85
2023-03-29T07:05:53.127Z,11.38
2023-03-29T07:08:59.708Z,8.25
2023-03-29T07:12:01.785Z,9.00
2023-03-29T07:15:04.712Z,10.18
2023-03-29T07:18:08.383Z,8.82
2023-03-29T07:21:12.433Z,8.35
2023-03-29T07:24:14.691Z,8.50
2023-03-29T07:27:23.820Z,8.95
2023-03-29T07:30:31.012Z,8.45
2023-03-29T07:33:34.785Z,9.30
2023-03-29T07:39:40.854Z,12.98
2023-03-29T07:42:44.205Z,12.25
2023-03-29T07:45:46.858Z,11.10
2023-03-29T07:48:48.924Z,10.38
2023-03-29T07:51:55.117Z,10.10
2023-03-29T07:54:57.583Z,9.00
2023-03-29T07:57:59.856Z,9.35
2023-03-29T08:01:02.081Z,9.18
2023-03-29T08:04:04.970Z,9.55
2023-03-29T08:07:07.244Z,9.85
2023-03-29T08:10:17.631Z,9.65
2023-03-29T08:13:19.760Z,9.63
2023-03-29T08:16:21.879Z,9.90
2023-03-29T08:19:23.935Z,8.23
2023-03-29T08:22:26.026Z,9.50
2023-03-29T08:25:28.026Z,7.13
2023-03-29T08:28:30.985Z,6.60
2023-03-29T08:31:33.786Z,6.43
2023-03-29T08:34:36.287Z,7.70
2023-03-29T08:37:38.390Z,7.35
2023-03-29T08:40:40.661Z,6.65
2023-03-29T08:44:16.276Z,7.28
2023-03-29T08:47:41.705Z,10.52
2023-03-29T08:50:59.069Z,9.70
2023-03-29T08:54:47.522Z,8.07
2023-03-29T08:57:51.774Z,7.95
2023-03-29T09:00:56.970Z,8.40
2023-03-29T09:04:16.698Z,7.85
2023-03-29T09:07:18.896Z,6.88
2023-03-29T09:10:29.707Z,6.68
2023-03-29T09:13:34.514Z,8.15
2023-03-29T09:16:50.466Z,8.93
2023-03-29T09:20:07.498Z,9.25
2023-03-29T09:23:18.917Z,7.93
2023-03-29T09:26:38.342Z,9.68
2023-03-29T09:29:47.001Z,10.00
2023-03-29T09:33:06.160Z,9.20
2023-03-29T09:36:18.079Z,8.27
2023-03-29T09:39:22.273Z,8.98
2023-03-29T09:42:27.911Z,7.22
2023-03-29T09:45:30.493Z,7.20
2023-03-29T09:48:37.988Z,7.50
2023-03-29T09:51:42.196Z,7.57
2023-03-29T09:54:44.606Z,7.13
2023-03-29T09:57:46.962Z,8.32
2023-03-29T10:00:50.216Z,7.22
2023-03-29T10:03:53.644Z,6.82
2023-03-29T10:06:56.045Z,8.75
2023-03-29T10:09:58.053Z,7.28
2023-03-29T10:13:04.374Z,6.90
2023-03-29T10:16:09.376Z,6.82
2023-03-29T10:19:22.568Z,8.07
2023-03-29T10:22:29.859Z,5.40
2023-03-29T10:25:34.053Z,3.45
2023-03-29T10:28:38.094Z,2.90
2023-03-29T10:31:42.778Z,3.08
2023-03-29T10:34:47.877Z,5.25
2023-03-29T10:37:53.178Z,2.80
2023-03-29T10:41:04.264Z,3.10
2023-03-29T10:44:06.936Z,3.95
2023-03-29T10:47:20.871Z,4.07
2023-03-29T10:50:23.057Z,3.58
2023-03-29T10:53:32.580Z,5.30
2023-03-29T10:56:45.266Z,4.90
2023-03-29T11:00:23.815Z,2.80
2023-03-29T11:03:50.535Z,2.83
2023-03-29T11:07:00.845Z,2.33
2023-03-29T11:10:35.053Z,2.35
2023-03-29T11:13:53.921Z,3.38
2023-03-29T11:17:21.071Z,2.22
2023-03-29T11:20:33.537Z,2.25
2023-03-29T11:24:08.943Z,2.35
2023-03-29T11:27:10.928Z,2.20
2023-03-29T11:30:25.289Z,2.35
2023-03-29T11:33:47.890Z,2.63
2023-03-29T11:36:55.831Z,2.70
2023-03-29T11:40:15.344Z,2.65
2023-03-29T11:43:32.242Z,2.28
2023-03-29T11:46:41.726Z,2.63
2023-03-29T11:50:25.915Z,2.63
2023-03-29T11:53:42.795Z,2.75
2023-03-29T11:56:50.135Z,4.10
2023-03-29T12:00:05.471Z,3.00
2023-03-29T12:03:15.530Z,3.03
2023-03-29T12:06:23.148Z,2.25
2023-03-29T12:09:38.196Z,3.40
2023-03-29T12:12:55.492Z,2.95
2023-03-29T12:16:02.854Z,3.33
2023-03-29T12:19:40.292Z,2.97
2023-03-29T12:22:47.284Z,3.55
2023-03-29T12:26:04.529Z,3.08
2023-03-29T12:29:38.103Z,2.75
2023-03-29T12:33:22.128Z,3.20
2023-03-29T12:37:00.834Z,4.10
2023-03-29T12:40:22.917Z,4.50
2023-03-29T12:43:31.098Z,2.63
2023-03-29T12:46:34.661Z,3.03
2023-03-29T12:49:39.156Z,2.20
2023-03-29T12:52:42.986Z,3.15
2023-03-29T12:55:45.010Z,3.70
2023-03-29T12:59:06.708Z,3.13
2023-03-29T13:02:14.703Z,3.47
2023-03-29T13:05:35.138Z,2.25
2023-03-29T13:08:44.181Z,2.97
2023-03-29T13:12:19.326Z,2.45
2023-03-29T13:15:25.356Z,3.78
2023-03-29T13:18:49.377Z,3.25
2023-03-29T13:22:10.509Z,2.67
2023-03-29T13:25:50.465Z,3.90
2023-03-29T13:29:37.199Z,2.33
2023-03-29T13:32:57.562Z,3.72
2023-03-29T13:36:02.445Z,3.83
2023-03-29T13:39:07.310Z,4.00
2023-03-29T13:42:47.264Z,3.95
2023-03-29T13:45:58.483Z,3.13
2023-03-29T13:49:20.976Z,2.92
2023-03-29T13:52:39.364Z,4.65
2023-03-29T13:55:59.928Z,2.97
2023-03-29T13:59:18.978Z,4.68
2023-03-29T14:03:08.641Z,3.95
2023-03-29T14:06:14.607Z,4.03
2023-03-29T14:09:19.206Z,3.00
2023-03-29T14:12:21.477Z,3.25
2023-03-29T14:15:26.972Z,3.03
2023-03-29T14:18:42.520Z,2.85
2023-03-29T14:21:46.134Z,4.97
2023-03-29T14:24:53.211Z,3.65
2023-03-29T14:27:55.587Z,4.28
2023-03-29T14:30:57.632Z,3.28
2023-03-29T14:34:01.479Z,2.67
2023-03-29T14:37:04.362Z,3.35
2023-03-29T14:40:15.528Z,3.45
2023-03-29T14:43:27.233Z,3.05
2023-03-29T14:46:30.001Z,3.90
2023-03-29T14:49:32.570Z,2.72
2023-03-29T14:52:35.184Z,2.50
2023-03-29T14:55:38.969Z,2.75
2023-03-29T14:58:46.753Z,3.47
2023-03-29T15:01:48.968Z,3.88
2023-03-29T15:05:04.911Z,3.85
2023-03-29T15:08:12.895Z,3.40
2023-03-29T15:11:27.456Z,3.28
2023-03-29T15:14:38.207Z,3.55
2023-03-29T15:17:51.240Z,3.42
2023-03-29T15:20:54.878Z,3.70
2023-03-29T15:23:59.072Z,3.63
2023-03-29T15:27:15.475Z,4.35
2023-03-29T15:30:19.160Z,3.20
2023-03-29T15:33:23.474Z,3.03
2023-03-29T15:36:27.371Z,3.55
2023-03-29T15:39:29.889Z,3.25
2023-03-29T15:42:32.034Z,3.47
2023-03-29T15:45:34.160Z,2.95
2023-03-29T15:48:36.222Z,2.72
2023-03-29T15:51:38.489Z,3.45
2023-03-29T15:54:40.610Z,2.90
2023-03-29T15:57:47.286Z,3.35
2023-03-29T16:00:54.239Z,3.75
2023-03-29T16:03:59.383Z,3.50
2023-03-29T16:07:03.616Z,3.38
2023-03-29T16:10:06.581Z,3.95
2023-03-29T16:13:12.342Z,3.27
2023-03-29T16:16:14.427Z,3.60
2023-03-29T16:19:16.617Z,3.63
2023-03-29T16:22:18.803Z,3.72
2023-03-29T16:25:24.690Z,3.88
2023-03-29T16:28:26.706Z,3.58
2023-03-29T16:31:28.940Z,3.15
2023-03-29T16:34:31.389Z,3.22
2023-03-29T16:37:33.647Z,2.67
2023-03-29T16:40:36.493Z,3.70
2023-03-29T16:43:38.825Z,3.75
2023-03-29T16:46:41.697Z,2.60
2023-03-29T16:49:45.655Z,3.60
2023-03-29T16:55:51.086Z,5.00
2023-03-29T16:58:53.071Z,5.18
2023-03-29T17:01:55.235Z,3.00
2023-03-29T17:04:57.649Z,5.13
2023-03-29T17:07:59.858Z,4.03
2023-03-29T17:11:03.137Z,4.00
2023-03-29T17:14:05.173Z,5.03
2023-03-29T17:17:07.172Z,4.22
2023-03-29T17:20:12.571Z,4.70
2023-03-29T17:23:14.685Z,2.97
2023-03-29T17:26:16.730Z,4.32
2023-03-29T17:29:18.881Z,4.35
2023-03-29T17:32:20.889Z,4.03
2023-03-29T17:35:23.201Z,2.72
2023-03-29T17:38:26.872Z,3.28
2023-03-29T17:41:30.841Z,4.78
2023-03-29T17:47:36.525Z,3.92
2023-03-29T17:50:38.618Z,4.82
2023-03-29T17:53:40.683Z,4.03
2023-03-29T17:56:43.643Z,6.35
2023-03-29T17:59:45.640Z,4.22
2023-03-29T18:02:47.857Z,4.35
2023-03-29T18:05:49.981Z,4.40
2023-03-29T18:08:53.308Z,4.97
2023-03-29T18:11:55.510Z,4.43
2023-03-29T18:14:57.590Z,5.20
2023-03-29T18:17:59.722Z,4.95
2023-03-29T18:21:03.200Z,4.35
2023-03-29T18:24:05.295Z,4.70
2023-03-29T18:27:07.406Z,4.90
2023-03-29T18:30:10.004Z,5.95
2023-03-29T18:33:12.063Z,6.35
2023-03-29T18:36:14.763Z,5.68
2023-03-29T18:39:17.022Z,6.85
2023-03-29T18:42:21.945Z,6.82
2023-03-29T18:45:24.144Z,7.22
2023-03-29T18:48:26.535Z,6.80
2023-03-29T18:51:28.988Z,11.13
2023-03-29T18:54:31.543Z,12.02
2023-03-29T18:57:39.468Z,11.23
2023-03-29T19:00:42.491Z,11.10
2023-03-29T19:03:44.958Z,9.85
2023-03-29T19:06:49.415Z,10.35
2023-03-29T19:09:51.527Z,5.60
2023-03-29T19:12:53.502Z,7.13
2023-03-29T19:15:55.601Z,5.50
2023-03-29T19:18:57.610Z,6.10
2023-03-29T19:22:00.776Z,5.88
2023-03-29T19:25:05.755Z,4.97
2023-03-29T19:28:08.832Z,5.20
2023-03-29T19:31:10.960Z,6.32
2023-03-29T19:34:13.247Z,6.88
2023-03-29T19:37:17.031Z,6.60
2023-03-29T19:40:20.197Z,5.78
2023-03-29T19:43:22.322Z,5.53
2023-03-29T19:46:24.505Z,4.95
2023-03-29T19:49:27.573Z,4.88
2023-03-29T19:52:30.535Z,5.53
2023-03-29T19:55:32.559Z,6.57
2023-03-29T19:58:34.645Z,4.88
2023-03-29T20:01:39.454Z,5.28
2023-03-29T20:04:41.730Z,7.15
2023-03-29T20:07:44.112Z,5.53
2023-03-29T20:10:46.217Z,4.97
2023-03-29T20:13:48.231Z,5.93
2023-03-29T20:16:50.865Z,6.63
2023-03-29T20:19:54.075Z,5.63
2023-03-29T20:22:58.430Z,5.03
2023-03-29T20:26:03.293Z,4.72
2023-03-29T20:29:06.300Z,4.93
2023-03-29T20:32:17.123Z,4.28
2023-03-29T20:35:19.273Z,5.53
2023-03-29T20:38:22.072Z,5.03
2023-03-29T20:41:24.162Z,5.90
2023-03-29T20:44:28.503Z,5.10
2023-03-29T20:47:32.094Z,6.10
2023-03-29T20:50:34.257Z,4.45
2023-03-29T20:53:36.350Z,4.57
2023-03-29T20:56:42.318Z,6.00
2023-03-29T20:59:46.065Z,6.75
2023-03-29T21:02:48.232Z,5.67
2023-03-29T21:05:55.326Z,6.43
2023-03-29T21:08:57.541Z,5.15
2023-03-29T21:11:59.663Z,5.38
2023-03-29T21:15:02.507Z,6.32
2023-03-29T21:18:04.801Z,6.55
2023-03-29T21:21:08.433Z,6.53
2023-03-29T21:24:11.291Z,6.78
2023-03-29T21:27:13.347Z,6.57
2023-03-29T21:30:16.673Z,7.43
2023-03-29T21:33:18.759Z,7.15
2023-03-29T21:36:20.851Z,6.35
2023-03-29T21:39:28.446Z,5.45
2023-03-29T21:42:30.525Z,5.97
2023-03-29T21:45:32.776Z,7.53
2023-03-29T21:48:36.080Z,6.03
2023-03-29T21:51:38.213Z,6.78
2023-03-29T21:54:40.320Z,6.30
2023-03-29T21:57:42.533Z,7.28
2023-03-29T22:00:46.104Z,6.00
2023-03-29T22:03:48.635Z,5.60
2023-03-29T22:06:50.733Z,5.90
2023-03-29T22:09:52.740Z,7.80
2023-03-29T22:12:54.772Z,6.95
2023-03-29T22:16:01.400Z,9.75
2023-03-29T22:19:04.438Z,7.38
2023-03-29T22:22:06.800Z,7.38
2023-03-29T22:25:10.112Z,10.10
2023-03-29T22:28:13.704Z,5.35
2023-03-29T22:31:18.059Z,6.80
2023-03-29T22:37:25.182Z,7.50
2023-03-29T22:40:27.270Z,6.82
2023-03-29T22:43:29.370Z,6.55
2023-03-29T22:46:31.875Z,7.82
2023-03-29T22:49:34.073Z,8.15
2023-03-29T22:52:36.120Z,7.13
2023-03-29T22:55:39.202Z,6.95
2023-03-29T22:58:42.383Z,7.25
2023-03-29T23:01:44.516Z,8.80
2023-03-29T23:04:47.658Z,8.95
2023-03-29T23:07:49.812Z,6.97
2023-03-29T23:13:56.212Z,6.38
2023-03-29T23:16:58.369Z,6.20
2023-03-29T23:20:00.960Z,6.70
2023-03-29T23:23:03.110Z,7.78
2023-03-29T23:26:06.629Z,6.30
2023-03-29T23:32:12.522Z,5.97
2023-03-29T23:35:15.907Z,7.50
2023-03-29T23:38:18.105Z,7.45
2023-03-29T23:41:20.523Z,6.97
2023-03-29T23:44:22.783Z,5.18
2023-03-29T23:47:27.115Z,5.78
2023-03-29T23:53:32.178Z,8.10
2023-03-29T23:56:34.427Z,6.05
2023-03-29T23:59:38.018Z,6.32
